Wellington, Ohio
Current Conditions -  °F | °C
As of 5:53 AM on Thursday 23 Oct 2014 (Local Time) from KLPR Reporting Station
Few Clouds Few Clouds  
Wind Chill: 41°   Ceiling: Unl
Heat Index: 45°   Visibility: 10mi
Dew Point: 43°   Wind: 7mph
Humidity: 93%   Direction: 320°NW
Pressure: 30.21"   Gusts: NA
Location:  41.17°N, 82.22°W
Report Text: KLPR 230953Z AUTO 32006KT 10SM FEW012 07/06 A3021 RMK AO2 SLP234 T00720061 TSNO
Loading
Personal Weather Stations






























Interactive Weather Map
Tropical Storm Tracking
New forecast layout! Learn more

10-Day Weather Forecast

Advertisements
Track Severe Weather on mobile